createdAt,value
2023-04-30T00:02:23.729Z,21.93
2023-04-30T00:07:25.395Z,21.97
2023-04-30T00:12:26.793Z,21.93
2023-04-30T00:17:28.212Z,21.96
2023-04-30T00:22:29.589Z,21.97
2023-04-30T00:27:31.831Z,21.93
2023-04-30T00:32:33.252Z,21.94
2023-04-30T00:37:34.657Z,21.95
2023-04-30T00:42:37.107Z,21.96
2023-04-30T00:47:38.580Z,21.95
2023-04-30T00:52:39.988Z,21.94
2023-04-30T00:57:41.410Z,21.96
2023-04-30T01:02:43.002Z,21.94
2023-04-30T01:07:47.299Z,21.93
2023-04-30T01:13:09.687Z,21.96
2023-04-30T01:18:17.466Z,21.95
2023-04-30T01:23:31.390Z,21.92
2023-04-30T01:28:32.788Z,21.92
2023-04-30T01:33:34.178Z,21.96
2023-04-30T01:38:38.383Z,21.95
2023-04-30T01:44:03.405Z,21.93
2023-04-30T01:49:27.742Z,21.95
2023-04-30T01:54:33.522Z,21.94
2023-04-30T01:59:35.158Z,21.91
2023-04-30T02:04:36.535Z,21.92
2023-04-30T02:09:37.916Z,21.92
2023-04-30T02:14:39.317Z,21.92
2023-04-30T02:19:40.698Z,21.92
2023-04-30T02:24:42.089Z,21.92
2023-04-30T02:29:43.467Z,21.92
2023-04-30T02:34:45.094Z,21.90
2023-04-30T02:39:46.467Z,21.92
2023-04-30T02:44:47.902Z,21.95
2023-04-30T02:49:49.321Z,21.91
2023-04-30T02:54:50.801Z,21.91
2023-04-30T02:59:52.336Z,21.93
2023-04-30T03:04:53.925Z,21.92
2023-04-30T03:09:55.386Z,21.90
2023-04-30T03:14:57.094Z,21.91
2023-04-30T03:19:58.469Z,21.93
2023-04-30T03:24:59.866Z,21.91
2023-04-30T03:30:01.254Z,21.92
2023-04-30T03:35:02.624Z,21.92
2023-04-30T03:40:04.795Z,21.92
2023-04-30T03:45:06.657Z,21.90
2023-04-30T03:50:08.824Z,21.91
2023-04-30T03:55:10.400Z,21.91
2023-04-30T04:00:13.435Z,21.90
2023-04-30T04:05:14.873Z,21.88
2023-04-30T04:10:16.301Z,21.88
2023-04-30T04:15:17.699Z,21.91
2023-04-30T04:20:19.097Z,21.90
2023-04-30T04:25:20.493Z,21.90
2023-04-30T04:30:21.895Z,21.90
2023-04-30T04:35:23.309Z,21.90
2023-04-30T04:40:24.877Z,21.91
2023-04-30T04:45:26.624Z,21.91
2023-04-30T04:50:28.060Z,21.92
2023-04-30T04:55:29.434Z,21.91
2023-04-30T05:00:30.812Z,21.91
2023-04-30T05:05:32.211Z,21.91
2023-04-30T05:10:34.746Z,21.91
2023-04-30T05:15:36.374Z,21.91
2023-04-30T05:20:37.754Z,21.92
2023-04-30T05:25:40.413Z,21.91
2023-04-30T05:30:41.818Z,21.94
2023-04-30T05:35:43.202Z,21.92
2023-04-30T05:40:44.595Z,21.93
2023-04-30T05:45:46.156Z,21.94
2023-04-30T05:50:47.587Z,21.93
2023-04-30T05:55:48.982Z,21.91
2023-04-30T06:00:51.836Z,21.92
2023-04-30T06:05:54.164Z,21.91
2023-04-30T06:10:55.696Z,21.94
2023-04-30T06:15:57.059Z,21.94
2023-04-30T06:20:58.447Z,21.91
2023-04-30T06:25:59.930Z,21.93
2023-04-30T06:31:01.367Z,21.95
2023-04-30T06:36:02.804Z,21.94
2023-04-30T06:41:04.237Z,21.92
2023-04-30T06:46:06.772Z,21.96
2023-04-30T06:51:10.482Z,21.95
2023-04-30T06:56:12.322Z,21.94
2023-04-30T07:01:13.919Z,21.94
2023-04-30T07:06:15.517Z,21.95
2023-04-30T07:11:16.980Z,21.92
2023-04-30T07:16:18.437Z,21.95
2023-04-30T07:21:19.837Z,21.97
2023-04-30T07:26:21.760Z,21.95
2023-04-30T07:31:23.230Z,21.95
2023-04-30T07:36:27.063Z,21.97
2023-04-30T07:41:28.440Z,21.95
2023-04-30T07:46:29.909Z,21.94
2023-04-30T07:51:33.116Z,21.96
2023-04-30T07:56:34.626Z,21.97
2023-04-30T08:01:36.142Z,21.96
2023-04-30T08:06:37.568Z,21.96
2023-04-30T08:11:38.962Z,21.96
2023-04-30T08:16:40.413Z,21.94
2023-04-30T08:21:41.920Z,21.99
2023-04-30T08:26:43.337Z,21.97
2023-04-30T08:31:44.753Z,21.98
2023-04-30T08:36:46.159Z,21.99
2023-04-30T08:41:47.674Z,21.97
2023-04-30T08:46:55.569Z,21.97
2023-04-30T08:51:56.993Z,21.98
2023-04-30T08:56:58.403Z,21.96
2023-04-30T09:02:02.801Z,22.00
2023-04-30T09:07:06.275Z,21.99
2023-04-30T09:12:18.812Z,21.99
2023-04-30T09:17:24.871Z,21.98
2023-04-30T09:22:26.301Z,21.95
2023-04-30T09:27:27.688Z,21.96
2023-04-30T09:32:29.154Z,21.96
2023-04-30T09:37:37.603Z,21.98
2023-04-30T09:42:39.652Z,21.93
2023-04-30T09:47:41.190Z,21.96
2023-04-30T09:52:53.405Z,21.98
2023-04-30T09:57:54.795Z,21.97
2023-04-30T10:02:56.204Z,21.94
2023-04-30T10:07:57.634Z,21.96
2023-04-30T10:13:02.839Z,21.95
2023-04-30T10:18:06.145Z,21.94
2023-04-30T10:23:08.333Z,21.94
2023-04-30T10:28:09.718Z,21.97
2023-04-30T10:33:26.063Z,21.96
2023-04-30T10:38:29.640Z,21.95
2023-04-30T10:43:31.164Z,21.96
2023-04-30T10:48:34.764Z,21.95
2023-04-30T10:53:36.546Z,21.96
2023-04-30T10:58:39.404Z,21.95
2023-04-30T11:03:42.851Z,21.96
2023-04-30T11:08:45.569Z,21.94
2023-04-30T11:13:47.805Z,21.95
2023-04-30T11:18:49.178Z,21.96
2023-04-30T11:23:50.684Z,21.95
2023-04-30T11:28:53.216Z,21.95
2023-04-30T11:33:55.436Z,21.95
2023-04-30T11:38:56.802Z,21.95
2023-04-30T11:43:58.187Z,21.93
2023-04-30T11:48:59.741Z,21.94
2023-04-30T11:54:01.167Z,21.96
2023-04-30T11:59:02.540Z,21.92
2023-04-30T12:04:04.143Z,21.95
2023-04-30T12:09:08.060Z,21.94
2023-04-30T12:14:14.545Z,21.98
2023-04-30T12:19:16.868Z,21.96
2023-04-30T12:24:19.145Z,21.95
2023-04-30T12:29:21.773Z,21.95
2023-04-30T12:34:26.158Z,21.96
2023-04-30T12:39:33.193Z,21.95
2023-04-30T12:44:42.582Z,21.95
2023-04-30T12:49:44.948Z,21.95
2023-04-30T12:54:46.362Z,21.94
2023-04-30T12:59:53.953Z,21.92
2023-04-30T13:04:55.556Z,21.92
2023-04-30T13:09:57.216Z,21.92
2023-04-30T13:14:58.700Z,21.90
2023-04-30T13:20:00.124Z,21.93
2023-04-30T13:25:01.595Z,21.94
2023-04-30T13:30:03.834Z,21.91
2023-04-30T13:35:05.784Z,21.91
2023-04-30T13:40:08.055Z,21.91
2023-04-30T13:45:09.646Z,21.92
2023-04-30T13:50:11.221Z,21.93
2023-04-30T13:55:13.676Z,21.92
2023-04-30T14:00:15.868Z,21.92
2023-04-30T14:05:17.276Z,21.92
2023-04-30T14:10:18.668Z,21.91
2023-04-30T14:15:20.547Z,21.94
2023-04-30T14:20:22.005Z,21.93
2023-04-30T14:25:23.891Z,21.93
2023-04-30T14:30:25.295Z,21.91
2023-04-30T14:35:27.019Z,21.93
2023-04-30T14:40:28.620Z,21.92
2023-04-30T14:45:30.040Z,21.88
2023-04-30T14:50:31.453Z,21.88
2023-04-30T14:55:33.061Z,21.91
2023-04-30T15:00:34.439Z,21.91
2023-04-30T15:05:36.412Z,21.90
2023-04-30T15:10:37.800Z,21.87
2023-04-30T15:15:39.375Z,21.89
2023-04-30T15:20:40.796Z,21.87
2023-04-30T15:25:43.942Z,21.84
2023-04-30T15:30:45.337Z,21.85
2023-04-30T15:35:47.345Z,21.86
2023-04-30T15:40:48.760Z,21.78
2023-04-30T15:45:50.150Z,21.86
2023-04-30T15:50:51.528Z,21.81
2023-04-30T15:55:53.161Z,21.82
2023-04-30T16:00:54.569Z,21.79
2023-04-30T16:05:55.963Z,21.81
2023-04-30T16:10:57.393Z,21.84
2023-04-30T16:15:58.844Z,21.83
2023-04-30T16:21:01.231Z,21.95
2023-04-30T16:26:02.635Z,21.88
2023-04-30T16:31:04.177Z,21.87
2023-04-30T16:36:05.676Z,21.88
2023-04-30T16:41:07.040Z,21.87
2023-04-30T16:46:08.520Z,21.91
2023-04-30T16:51:09.920Z,21.87
2023-04-30T16:56:11.335Z,21.86
2023-04-30T17:01:12.767Z,21.90
2023-04-30T17:06:14.518Z,21.90
2023-04-30T17:11:19.065Z,21.90
2023-04-30T17:16:20.964Z,21.81
2023-04-30T17:21:22.394Z,21.82
2023-04-30T17:26:24.688Z,21.83
2023-04-30T17:31:26.117Z,21.83
2023-04-30T17:36:28.695Z,21.81
2023-04-30T17:41:30.253Z,21.80
2023-04-30T17:46:31.684Z,21.86
2023-04-30T17:51:33.152Z,21.78
2023-04-30T17:56:35.080Z,21.77
2023-04-30T18:01:37.218Z,21.81
2023-04-30T18:06:38.770Z,21.79
2023-04-30T18:11:40.351Z,21.75
2023-04-30T18:16:41.915Z,21.76
2023-04-30T18:21:43.436Z,21.80
2023-04-30T18:26:45.124Z,21.71
2023-04-30T18:31:46.533Z,21.69
2023-04-30T18:36:47.940Z,21.70
2023-04-30T18:41:49.342Z,21.69
2023-04-30T18:46:50.767Z,21.64
2023-04-30T18:51:53.446Z,21.68
2023-04-30T18:56:54.858Z,21.66
2023-04-30T19:01:56.237Z,21.62
2023-04-30T19:06:57.640Z,21.61
2023-04-30T19:11:59.127Z,21.62
2023-04-30T19:17:00.879Z,21.60
2023-04-30T19:22:02.310Z,21.58
2023-04-30T19:27:04.126Z,21.55
2023-04-30T19:32:05.775Z,21.56
2023-04-30T19:37:07.272Z,21.52
2023-04-30T19:42:08.686Z,21.49
2023-04-30T19:47:10.131Z,21.52
2023-04-30T19:52:11.507Z,21.52
2023-04-30T19:57:12.933Z,21.55
2023-04-30T20:02:14.470Z,21.58
2023-04-30T20:07:15.941Z,21.59
2023-04-30T20:12:17.315Z,21.62
2023-04-30T20:17:19.039Z,21.60
2023-04-30T20:22:20.464Z,21.64
2023-04-30T20:27:22.004Z,21.64
2023-04-30T20:32:23.579Z,21.65
2023-04-30T20:37:24.975Z,21.68
2023-04-30T20:42:29.691Z,21.68
2023-04-30T20:47:31.124Z,21.69
2023-04-30T20:52:32.595Z,21.70
2023-04-30T20:57:34.218Z,21.74
2023-04-30T21:02:35.830Z,21.72
2023-04-30T21:07:37.295Z,21.74
2023-04-30T21:12:38.661Z,21.74
2023-04-30T21:17:40.187Z,21.75
2023-04-30T21:22:42.098Z,21.75
2023-04-30T21:27:43.479Z,21.77
2023-04-30T21:32:47.856Z,21.78
2023-04-30T21:37:49.284Z,21.77
2023-04-30T21:42:52.391Z,21.77
2023-04-30T21:47:53.874Z,21.76
2023-04-30T21:52:55.311Z,21.76
2023-04-30T21:57:56.936Z,21.77
2023-04-30T22:02:58.485Z,21.77
2023-04-30T22:07:59.949Z,21.76
2023-04-30T22:13:01.719Z,21.77
2023-04-30T22:18:03.147Z,21.78
2023-04-30T22:23:04.530Z,21.77
2023-04-30T22:28:05.934Z,21.77
2023-04-30T22:33:07.520Z,21.78
2023-04-30T22:38:08.979Z,21.78
2023-04-30T22:43:10.356Z,21.76
2023-04-30T22:48:12.209Z,21.77
2023-04-30T22:53:13.677Z,21.78
2023-04-30T22:58:15.850Z,21.79
2023-04-30T23:03:17.427Z,21.77
2023-04-30T23:08:19.068Z,21.77
2023-04-30T23:13:20.507Z,21.77
2023-04-30T23:18:23.689Z,21.79
2023-04-30T23:23:25.650Z,21.79
2023-04-30T23:28:27.161Z,21.78
2023-04-30T23:33:28.538Z,21.77
2023-04-30T23:38:29.931Z,21.78
2023-04-30T23:43:32.829Z,21.78
2023-04-30T23:48:34.677Z,21.80
2023-04-30T23:53:36.159Z,21.80
2023-04-30T23:58:37.558Z,21.79
